createdAt,value
2019-04-22T00:02:22.565Z,28.71
2019-04-22T00:05:04.698Z,28.71
2019-04-22T00:07:56.351Z,28.63
2019-04-22T00:10:32.354Z,28.70
2019-04-22T00:13:14.970Z,29.12
2019-04-22T00:15:33.967Z,29.37
2019-04-22T00:18:13.323Z,28.92
2019-04-22T00:20:54.253Z,28.92
2019-04-22T00:23:24.687Z,29.19
2019-04-22T00:28:34.998Z,29.28
2019-04-22T00:31:20.987Z,28.82
2019-04-22T00:33:54.694Z,28.86
2019-04-22T00:36:27.528Z,29.15
2019-04-22T00:39:07.147Z,29.15
2019-04-22T00:41:36.531Z,29.29
2019-04-22T00:44:13.798Z,29.34
2019-04-22T00:46:46.198Z,29.34
2019-04-22T00:51:52.882Z,29.22
2019-04-22T00:54:26.070Z,29.28
2019-04-22T00:56:53.995Z,29.40
2019-04-22T00:59:35.114Z,29.51
2019-04-22T01:02:10.161Z,29.51
2019-04-22T01:04:40.927Z,29.56
2019-04-22T01:07:11.482Z,29.58
2019-04-22T01:09:49.770Z,29.70
2019-04-22T01:12:20.713Z,29.81
2019-04-22T01:14:57.362Z,29.99
2019-04-22T01:17:29.211Z,29.88
2019-04-22T01:22:27.104Z,30.18
2019-04-22T01:25:02.539Z,30.23
2019-04-22T01:27:36.378Z,30.23
2019-04-22T01:30:07.176Z,30.36
2019-04-22T01:32:36.121Z,30.36
2019-04-22T01:35:12.976Z,30.58
2019-04-22T01:37:58.613Z,30.57
2019-04-22T01:40:40.545Z,30.89
2019-04-22T01:43:06.991Z,30.89
2019-04-22T01:45:47.685Z,31.02
2019-04-22T01:48:17.729Z,31.39
2019-04-22T01:50:52.781Z,31.26
2019-04-22T01:53:29.764Z,31.53
2019-04-22T01:55:58.998Z,31.19
2019-04-22T01:58:30.760Z,31.26
2019-04-22T02:01:04.646Z,31.26
2019-04-22T02:03:42.898Z,31.63
2019-04-22T02:06:17.129Z,31.56
2019-04-22T02:08:53.224Z,31.55
2019-04-22T02:11:26.537Z,31.60
2019-04-22T02:13:56.341Z,31.83
2019-04-22T02:16:34.285Z,31.62
2019-04-22T02:19:11.726Z,31.62
2019-04-22T02:21:38.198Z,31.37
2019-04-22T02:24:12.185Z,31.41
2019-04-22T02:26:48.328Z,31.41
2019-04-22T02:29:27.188Z,31.77
2019-04-22T02:31:58.963Z,32.17
2019-04-22T02:34:32.912Z,32.33
2019-04-22T02:37:04.998Z,32.33
2019-04-22T02:39:55.047Z,32.48
2019-04-22T02:42:13.189Z,32.73
2019-04-22T02:44:46.663Z,32.73
2019-04-22T02:47:20.913Z,32.74
2019-04-22T02:50:00.829Z,31.82
2019-04-22T02:52:34.802Z,32.21
2019-04-22T02:55:04.902Z,32.60
2019-04-22T03:00:18.139Z,32.50
2019-04-22T03:02:54.550Z,32.77
2019-04-22T03:05:19.490Z,32.98
2019-04-22T03:07:58.299Z,32.98
2019-04-22T03:10:35.480Z,33.01
2019-04-22T03:13:00.162Z,33.27
2019-04-22T03:15:38.140Z,32.84
2019-04-22T03:20:41.990Z,33.49
2019-04-22T03:28:29.198Z,33.87
2019-04-22T03:34:55.384Z,34.04
2019-04-22T03:39:45.368Z,33.59
2019-04-22T03:43:08.546Z,33.59
2019-04-22T03:47:11.324Z,33.78
2019-04-22T03:49:50.014Z,33.80
2019-04-22T03:52:11.592Z,33.69
2019-04-22T03:54:46.382Z,34.03
2019-04-22T03:59:48.052Z,34.03
2019-04-22T04:02:28.958Z,34.33
2019-04-22T04:04:49.981Z,34.33
2019-04-22T04:07:45.697Z,34.49
2019-04-22T04:10:10.456Z,34.27
2019-04-22T04:12:53.370Z,34.27
2019-04-22T04:15:28.930Z,34.56
2019-04-22T04:23:05.479Z,34.75
2019-04-22T04:28:26.890Z,34.84
2019-04-22T04:33:18.493Z,34.98
2019-04-22T04:35:48.141Z,35.09
2019-04-22T04:38:13.126Z,35.35
2019-04-22T04:41:06.858Z,35.24
2019-04-22T04:43:27.869Z,35.02
2019-04-22T04:46:00.969Z,35.14
2019-04-22T04:48:44.680Z,35.39
2019-04-22T04:51:16.077Z,35.08
2019-04-22T04:53:31.780Z,34.69
2019-04-22T04:56:23.257Z,35.27
2019-04-22T04:58:55.870Z,34.74
2019-04-22T05:03:56.860Z,34.57
2019-04-22T05:11:54.418Z,34.44
2019-04-22T05:14:09.331Z,35.20
2019-04-22T05:21:40.537Z,35.43
2019-04-22T05:24:29.840Z,35.43
2019-04-22T05:26:57.494Z,35.44
2019-04-22T05:29:32.697Z,35.40
2019-04-22T05:32:13.735Z,35.75
2019-04-22T05:34:28.041Z,35.75
2019-04-22T05:37:03.968Z,36.05
2019-04-22T05:39:38.059Z,36.05
2019-04-22T05:42:08.540Z,36.04
2019-04-22T05:44:44.094Z,35.93
2019-04-22T05:47:14.725Z,35.93
2019-04-22T05:49:47.784Z,36.41
2019-04-22T05:52:20.367Z,36.30
2019-04-22T05:54:59.509Z,36.30
2019-04-22T05:57:35.684Z,36.20
2019-04-22T06:00:06.391Z,35.75
2019-04-22T06:02:47.581Z,35.75
2019-04-22T06:05:14.897Z,35.56
2019-04-22T06:07:41.517Z,35.56
2019-04-22T06:12:52.416Z,36.28
2019-04-22T06:15:27.158Z,35.12
2019-04-22T06:20:37.295Z,36.39
2019-04-22T06:23:12.659Z,35.19
2019-04-22T06:25:57.837Z,36.21
2019-04-22T06:28:28.612Z,36.22
2019-04-22T06:33:30.217Z,36.56
2019-04-22T06:41:09.227Z,36.68
2019-04-22T06:43:44.608Z,35.91
2019-04-22T06:46:15.312Z,36.54
2019-04-22T06:48:45.757Z,36.23
2019-04-22T06:51:20.198Z,36.52
2019-04-22T06:53:54.059Z,36.83
2019-04-22T06:56:22.028Z,36.75
2019-04-22T06:58:59.044Z,36.83
2019-04-22T07:01:39.072Z,36.21
2019-04-22T07:04:03.352Z,36.34
2019-04-22T07:11:53.121Z,36.89
2019-04-22T07:14:18.644Z,35.80
2019-04-22T07:17:00.859Z,36.13
2019-04-22T07:19:33.635Z,36.06
2019-04-22T07:24:46.139Z,35.69
2019-04-22T07:29:46.671Z,36.65
2019-04-22T07:32:29.781Z,37.25
2019-04-22T07:34:52.850Z,37.19
2019-04-22T07:37:31.364Z,36.46
2019-04-22T07:39:56.559Z,36.72
2019-04-22T07:42:32.847Z,37.15
2019-04-22T07:45:08.634Z,37.37
2019-04-22T07:50:34.198Z,37.04
2019-04-22T07:52:44.950Z,37.20
2019-04-22T07:55:11.699Z,36.50
2019-04-22T07:57:52.321Z,36.50
2019-04-22T08:00:29.465Z,36.82
2019-04-22T08:03:06.693Z,36.81
2019-04-22T08:05:44.357Z,37.33
2019-04-22T08:08:15.606Z,37.49
2019-04-22T08:10:43.190Z,37.51
2019-04-22T08:13:17.247Z,37.28
2019-04-22T08:18:21.910Z,37.35
2019-04-22T08:20:56.700Z,36.74
2019-04-22T08:23:31.607Z,37.35
2019-04-22T08:26:00.845Z,37.19
2019-04-22T08:28:40.746Z,37.78
2019-04-22T08:31:14.879Z,37.26
2019-04-22T08:33:49.623Z,37.38
2019-04-22T08:36:17.941Z,37.49
2019-04-22T08:39:00.866Z,37.04
2019-04-22T08:44:02.521Z,37.43
2019-04-22T08:46:40.407Z,37.29
2019-04-22T08:49:05.721Z,37.45
2019-04-22T08:51:44.280Z,37.69
2019-04-22T08:56:56.853Z,37.81
2019-04-22T08:59:24.782Z,37.86
2019-04-22T09:01:59.353Z,37.89
2019-04-22T09:04:32.275Z,37.57
2019-04-22T09:12:15.955Z,37.69
2019-04-22T09:14:45.803Z,37.90
2019-04-22T09:17:22.799Z,37.76
2019-04-22T09:19:58.734Z,37.68
2019-04-22T09:22:26.221Z,37.66
2019-04-22T09:24:58.596Z,37.55
2019-04-22T09:27:39.918Z,38.08
2019-04-22T09:30:15.765Z,37.77
2019-04-22T09:32:52.346Z,37.50
2019-04-22T09:35:17.354Z,37.67
2019-04-22T09:38:08.890Z,37.67
2019-04-22T09:40:28.606Z,37.74
2019-04-22T09:43:01.155Z,37.59
2019-04-22T09:45:27.601Z,37.63
2019-04-22T09:48:09.043Z,37.62
2019-04-22T09:50:44.560Z,37.40
2019-04-22T09:53:15.056Z,37.40
2019-04-22T09:55:41.672Z,37.44
2019-04-22T09:58:16.183Z,37.14
2019-04-22T10:01:22.741Z,37.38
2019-04-22T10:03:56.231Z,37.85
2019-04-22T10:09:25.959Z,37.74
2019-04-22T10:14:05.548Z,37.62
2019-04-22T10:16:43.763Z,37.57
2019-04-22T10:19:16.702Z,37.67
2019-04-22T10:24:19.049Z,37.53
2019-04-22T10:27:05.997Z,37.65
2019-04-22T10:29:38.237Z,37.59
2019-04-22T10:32:00.838Z,37.45
2019-04-22T10:34:23.868Z,37.52
2019-04-22T10:36:52.768Z,37.52
2019-04-22T10:39:18.366Z,37.63
2019-04-22T10:41:50.631Z,37.63
2019-04-22T10:44:23.645Z,37.47
2019-04-22T10:46:56.075Z,37.42
2019-04-22T10:49:28.610Z,36.85
2019-04-22T10:52:00.760Z,37.21
2019-04-22T10:54:33.637Z,37.21
2019-04-22T10:57:06.673Z,37.53
2019-04-22T10:59:38.567Z,37.38
2019-04-22T11:02:11.691Z,37.38
2019-04-22T11:04:48.151Z,37.39
2019-04-22T11:07:25.250Z,37.38
2019-04-22T11:10:01.157Z,37.33
2019-04-22T11:12:30.805Z,37.59
2019-04-22T11:15:00.903Z,37.63
2019-04-22T11:17:33.529Z,37.72
2019-04-22T11:20:07.939Z,37.59
2019-04-22T11:22:40.750Z,37.53
2019-04-22T11:25:13.837Z,37.48
2019-04-22T11:27:46.902Z,37.48
2019-04-22T11:30:23.709Z,37.22
2019-04-22T11:32:54.224Z,37.08
2019-04-22T11:35:27.808Z,37.52
2019-04-22T11:38:00.991Z,37.34
2019-04-22T11:40:38.437Z,37.29
2019-04-22T11:43:07.982Z,37.28
2019-04-22T11:45:41.575Z,37.34
2019-04-22T11:48:13.382Z,37.30
2019-04-22T11:50:46.161Z,37.47
2019-04-22T11:53:18.661Z,37.47
2019-04-22T11:55:50.790Z,37.36
2019-04-22T11:58:24.443Z,37.36
2019-04-22T12:00:57.062Z,37.44
2019-04-22T12:03:29.069Z,37.33
2019-04-22T12:06:02.061Z,37.33
2019-04-22T12:08:34.111Z,37.29
2019-04-22T12:11:06.426Z,37.32
2019-04-22T12:13:42.477Z,37.32
2019-04-22T12:16:14.787Z,37.31
2019-04-22T12:18:47.261Z,37.10
2019-04-22T12:21:19.370Z,37.10
2019-04-22T12:23:52.718Z,37.19
2019-04-22T12:26:25.478Z,37.19
2019-04-22T12:28:59.318Z,37.14
2019-04-22T12:31:31.582Z,37.00
2019-04-22T12:34:03.860Z,37.04
2019-04-22T12:36:36.242Z,37.04
2019-04-22T12:39:11.572Z,37.00
2019-04-22T12:41:44.221Z,37.00
2019-04-22T12:44:16.312Z,36.94
2019-04-22T12:46:48.222Z,36.76
2019-04-22T12:49:20.338Z,36.76
2019-04-22T12:51:52.219Z,36.81
2019-04-22T12:54:24.626Z,36.86
2019-04-22T12:56:57.677Z,36.75
2019-04-22T12:59:29.958Z,36.73
2019-04-22T13:02:03.014Z,36.71
2019-04-22T13:04:36.246Z,36.59
2019-04-22T13:07:08.037Z,36.59
2019-04-22T13:09:41.117Z,36.51
2019-04-22T13:12:14.926Z,36.56
2019-04-22T13:14:48.690Z,36.46
2019-04-22T13:17:20.958Z,36.35
2019-04-22T13:19:54.016Z,36.27
2019-04-22T13:22:27.042Z,36.30
2019-04-22T13:24:59.691Z,36.20
2019-04-22T13:27:33.017Z,36.20
2019-04-22T13:30:06.277Z,36.20
2019-04-22T13:32:38.840Z,36.20
2019-04-22T13:35:12.865Z,36.17
2019-04-22T13:37:44.629Z,36.13
2019-04-22T13:40:19.034Z,36.09
2019-04-22T13:42:51.209Z,35.98
2019-04-22T13:45:23.435Z,35.93
2019-04-22T13:48:14.678Z,35.91
2019-04-22T13:54:13.749Z,35.83
2019-04-22T13:56:10.583Z,35.77
2019-04-22T13:58:26.762Z,35.71
2019-04-22T14:00:46.891Z,35.69
2019-04-22T14:03:39.320Z,35.70
2019-04-22T14:06:13.040Z,35.70
2019-04-22T14:08:45.447Z,35.54
2019-04-22T14:11:31.314Z,35.54
2019-04-22T14:13:52.072Z,35.48
2019-04-22T14:16:24.830Z,35.48
2019-04-22T14:19:18.417Z,35.45
2019-04-22T14:21:51.581Z,35.45
2019-04-22T14:24:23.739Z,35.38
2019-04-22T14:27:13.890Z,35.30
2019-04-22T14:29:31.528Z,35.26
2019-04-22T14:32:11.453Z,35.17
2019-04-22T14:34:37.998Z,35.17
2019-04-22T14:37:11.876Z,35.09
2019-04-22T14:39:44.093Z,35.01
2019-04-22T14:42:34.388Z,34.97
2019-04-22T14:45:24.342Z,34.96
2019-04-22T14:47:49.580Z,34.99
2019-04-22T14:50:18.452Z,34.94
2019-04-22T14:52:50.743Z,34.93
2019-04-22T14:55:12.983Z,34.88
2019-04-22T14:57:40.382Z,34.90
2019-04-22T15:00:16.243Z,34.85
2019-04-22T15:02:48.155Z,34.73
2019-04-22T15:05:22.027Z,34.73
2019-04-22T15:07:55.034Z,34.77
2019-04-22T15:10:28.196Z,34.83
2019-04-22T15:13:00.780Z,34.71
2019-04-22T15:15:51.530Z,34.62
2019-04-22T15:18:35.766Z,34.62
2019-04-22T15:21:11.159Z,34.55
2019-04-22T15:23:42.874Z,34.45
2019-04-22T15:26:14.708Z,34.45
2019-04-22T15:28:47.242Z,34.39
2019-04-22T15:31:19.445Z,34.39
2019-04-22T15:33:52.309Z,34.35
2019-04-22T15:36:24.210Z,34.42
2019-04-22T15:38:57.546Z,34.33
2019-04-22T15:41:30.539Z,34.18
2019-04-22T15:44:03.610Z,34.18
2019-04-22T15:46:37.039Z,34.09
2019-04-22T15:49:09.900Z,33.99
2019-04-22T15:51:42.891Z,33.90
2019-04-22T15:54:15.911Z,33.92
2019-04-22T15:56:48.743Z,33.82
2019-04-22T15:59:38.858Z,33.83
2019-04-22T16:01:58.179Z,33.79
2019-04-22T16:04:28.528Z,33.78
2019-04-22T16:07:01.207Z,33.78
2019-04-22T16:09:33.315Z,33.74
2019-04-22T16:12:16.314Z,33.65
2019-04-22T16:14:43.486Z,33.72
2019-04-22T16:17:12.750Z,33.72
2019-04-22T16:19:45.149Z,33.62
2019-04-22T16:22:54.728Z,33.55
2019-04-22T16:25:47.211Z,33.55
2019-04-22T16:28:19.677Z,33.55
2019-04-22T16:30:53.353Z,33.51
2019-04-22T16:33:27.785Z,33.52
2019-04-22T16:36:00.518Z,33.52
2019-04-22T16:38:33.012Z,33.48
2019-04-22T16:41:06.361Z,33.48
2019-04-22T16:43:38.679Z,33.45
2019-04-22T16:46:11.602Z,33.42
2019-04-22T16:48:43.712Z,33.28
2019-04-22T16:51:16.166Z,33.43
2019-04-22T16:53:49.595Z,33.29
2019-04-22T16:56:22.581Z,33.29
2019-04-22T16:58:54.812Z,33.23
2019-04-22T17:02:01.095Z,33.18
2019-04-22T17:04:46.751Z,33.08
2019-04-22T17:07:22.389Z,33.08
2019-04-22T17:09:55.508Z,33.03
2019-04-22T17:12:38.673Z,33.01
2019-04-22T17:15:04.544Z,33.01
2019-04-22T17:17:36.221Z,33.04
2019-04-22T17:20:11.330Z,33.02
2019-04-22T17:22:43.756Z,33.00
2019-04-22T17:25:18.163Z,32.78
2019-04-22T17:27:51.813Z,32.78
2019-04-22T17:30:24.378Z,32.74
2019-04-22T17:32:56.723Z,32.88
2019-04-22T17:35:28.626Z,32.88
2019-04-22T17:38:08.748Z,32.88
2019-04-22T17:40:51.228Z,32.89
2019-04-22T17:43:44.091Z,32.88
2019-04-22T17:46:04.452Z,32.84
2019-04-22T17:48:57.467Z,32.70
2019-04-22T17:51:31.465Z,32.79
2019-04-22T17:54:06.764Z,32.79
2019-04-22T17:56:45.217Z,32.78
2019-04-22T17:59:18.649Z,32.71
2019-04-22T18:01:44.020Z,32.65
2019-04-22T18:04:04.831Z,32.68
2019-04-22T18:07:04.144Z,32.67
2019-04-22T18:09:57.985Z,32.52
2019-04-22T18:12:16.313Z,32.52
2019-04-22T18:14:49.719Z,32.60
2019-04-22T18:17:19.486Z,32.53
2019-04-22T18:19:49.207Z,32.71
2019-04-22T18:22:12.332Z,32.77
2019-04-22T18:24:51.889Z,32.54
2019-04-22T18:27:38.920Z,32.53
2019-04-22T18:29:55.858Z,32.53
2019-04-22T18:32:30.767Z,32.46
2019-04-22T18:35:09.826Z,32.48
2019-04-22T18:37:43.899Z,32.48
2019-04-22T18:40:18.162Z,32.39
2019-04-22T18:42:56.717Z,32.38
2019-04-22T18:45:39.864Z,32.43
2019-04-22T18:47:55.057Z,32.38
2019-04-22T18:50:45.392Z,32.38
2019-04-22T18:53:35.166Z,32.31
2019-04-22T18:56:34.190Z,32.31
2019-04-22T18:58:54.828Z,32.38
2019-04-22T19:24:56.035Z,32.31
2019-04-22T19:27:32.076Z,32.31
2019-04-22T19:30:14.028Z,32.34
2019-04-22T19:32:38.392Z,32.37
2019-04-22T19:35:11.723Z,32.31
2019-04-22T19:37:41.142Z,32.31
2019-04-22T19:40:24.166Z,32.23
2019-04-22T19:43:03.953Z,32.23
2019-04-22T19:45:26.555Z,32.12
2019-04-22T19:48:16.657Z,31.97
2019-04-22T19:50:45.551Z,32.07
2019-04-22T19:53:19.510Z,32.07
2019-04-22T19:55:48.196Z,32.11
2019-04-22T19:58:18.767Z,32.11
2019-04-22T20:01:20.379Z,31.94
2019-04-22T20:04:22.983Z,31.94
2019-04-22T20:06:49.122Z,31.97
2019-04-22T20:09:30.087Z,31.79
2019-04-22T20:12:00.642Z,31.83
2019-04-22T20:14:35.283Z,31.85
2019-04-22T20:17:00.655Z,31.74
2019-04-22T20:22:12.756Z,31.72
2019-04-22T20:24:40.708Z,31.73
2019-04-22T20:27:22.515Z,31.67
2019-04-22T20:29:58.082Z,31.67
2019-04-22T20:32:29.238Z,31.54
2019-04-22T20:35:03.001Z,31.31
2019-04-22T20:37:38.434Z,31.31
2019-04-22T20:40:10.734Z,31.21
2019-04-22T20:45:29.121Z,31.42
2019-04-22T20:47:45.468Z,31.47
2019-04-22T20:50:29.122Z,31.47
2019-04-22T20:53:06.946Z,31.45
2019-04-22T20:55:32.261Z,31.58
2019-04-22T20:58:10.062Z,31.46
2019-04-22T21:00:36.792Z,31.42
2019-04-22T21:03:06.267Z,31.50
2019-04-22T21:05:40.291Z,31.50
2019-04-22T21:08:24.450Z,31.45
2019-04-22T21:10:46.738Z,31.32
2019-04-22T21:13:22.473Z,31.41
2019-04-22T21:16:04.242Z,31.12
2019-04-22T21:18:30.543Z,31.12
2019-04-22T21:21:13.573Z,31.34
2019-04-22T21:23:34.544Z,31.34
2019-04-22T21:26:13.818Z,31.08
2019-04-22T21:28:47.686Z,30.98
2019-04-22T21:31:32.400Z,30.98
2019-04-22T21:34:02.260Z,30.89
2019-04-22T21:39:00.858Z,30.86
2019-04-22T21:41:37.416Z,30.86
2019-04-22T21:44:12.828Z,31.09
2019-04-22T21:46:51.326Z,31.09
2019-04-22T21:49:23.159Z,30.88
2019-04-22T21:51:53.580Z,30.62
2019-04-22T21:54:26.693Z,30.91
2019-04-22T21:59:43.193Z,30.81
2019-04-22T22:02:25.653Z,30.81
2019-04-22T22:04:52.487Z,30.80
2019-04-22T22:07:15.661Z,30.59
2019-04-22T22:09:59.736Z,30.59
2019-04-22T22:12:36.094Z,30.63
2019-04-22T22:15:07.243Z,30.63
2019-04-22T22:17:40.401Z,30.54
2019-04-22T22:20:09.960Z,30.54
2019-04-22T22:22:52.478Z,30.50
2019-04-22T22:25:26.835Z,30.43
2019-04-22T22:27:53.382Z,30.41
2019-04-22T22:33:05.999Z,30.30
2019-04-22T22:35:39.339Z,30.14
2019-04-22T22:38:13.520Z,30.14
2019-04-22T22:40:28.134Z,30.09
2019-04-22T22:42:59.410Z,30.30
2019-04-22T22:45:39.719Z,30.45
2019-04-22T22:48:32.141Z,30.52
2019-04-22T22:50:58.736Z,30.41
2019-04-22T22:53:40.123Z,30.41
2019-04-22T22:56:04.557Z,30.17
2019-04-22T22:58:41.415Z,30.11
2019-04-22T23:01:09.926Z,30.16
2019-04-22T23:04:07.044Z,30.40
2019-04-22T23:06:29.374Z,30.36
2019-04-22T23:08:56.822Z,30.31
2019-04-22T23:11:45.493Z,30.24
2019-04-22T23:14:02.422Z,30.24
2019-04-22T23:16:27.920Z,30.28
2019-04-22T23:19:06.998Z,30.22
2019-04-22T23:21:45.758Z,30.01
2019-04-22T23:24:44.860Z,29.87
2019-04-22T23:27:22.212Z,29.87
2019-04-22T23:30:01.994Z,30.08
2019-04-22T23:32:34.672Z,30.13
2019-04-22T23:35:33.768Z,30.13
2019-04-22T23:38:08.331Z,30.22
2019-04-22T23:40:39.051Z,30.09
2019-04-22T23:43:22.221Z,29.89
2019-04-22T23:45:50.467Z,30.09
2019-04-22T23:48:20.629Z,30.13
2019-04-22T23:50:55.869Z,30.13
2019-04-22T23:54:00.864Z,29.96
2019-04-22T23:56:04.747Z,29.90
2019-04-22T23:59:01.177Z,29.96
